• Join FlightAware (Why Join?)
  • Login
  • US Flag 
04:14PM EDT


 

Airport Tracker/Info


-or-


 

Live Flight TrackerFlight Track Log ✈ EJA831 ✈ 28-Apr-2013 ✈ KFWA - KPIT

Flight Track Log - Related Links

Times and Time Zones

All times are in EDT time to prevent confusion due to time zone crossing. See the EJA831 flight status page for this flight to view local times or setup timezone preferences in your user account.

Time Position Orientation Groundspeed Altitude Reporting Facility
EDT Latitude Longitude Course Direction KTS MPH feet Rate Location/Type
12:54PM 40.9686 -85.1389 90° East 221 254 3,800  Level Chicago Center
12:55PM 40.9731 -85.0431 86° East 256 295 7,800 3,480 Climbing Chicago Center
12:56PM 40.9794 -84.9375 85° East 279 321 11,000 2,700 Climbing Chicago Center
12:57PM 40.9850 -84.8242 86° East 302 348 13,500 2,580 Climbing Chicago Center
12:58PM 40.9928 -84.6653 86° East 353 406 16,400 2,640 Climbing Chicago Center
12:59PM 40.9969 -84.6056 85° East 346 398 17,400 1,800 Climbing Cleveland Center
01:00PM 41.0000 -84.4764 90° East  Level FlightAware Approximate
01:00PM 41.0039 -84.4631 86° East 367 422 19,000  Level Cleveland Center
01:01PM 41.0108 -84.3203 86° East 386 444 20,500 1,440 Climbing Cleveland Center
01:01PM 41.0122 -84.2394 89° East 391 450 21,400 1,440 Climbing Chicago Center
01:02PM 41.0197 -84.0894 86° East 406 467 23,000 1,140 Climbing Chicago Center
01:03PM 41.0242 -84.0236 85° East 397 457 23,000  Level Cleveland Center
01:04PM 41.0286 -83.8725 88° East 407 468 23,000  Level Cleveland Center
01:05PM 41.0350 -83.7214 87° East 407 468 23,000  Level Cleveland Center
01:06PM 41.0408 -83.5839 87° East 407 468 23,000  Level Cleveland Center
01:07PM 41.0467 -83.4328 87° East 407 468 23,000  Level Cleveland Center
01:08PM 41.0422 -83.2811 92° East 407 468 23,000  Level Cleveland Center
01:09PM 41.0122 -83.1342 105° East 402 463 23,000  Level Cleveland Center
01:10PM 40.9864 -82.9764 102° East 402 463 23,000  Level Cleveland Center
01:11PM 40.9622 -82.8297 102° East 397 457 23,000  Level Cleveland Center
01:12PM 40.9378 -82.6858 103° East 397 457 23,000  Level Cleveland Center
01:13PM 40.9133 -82.5450 103° East 397 457 23,000  Level Cleveland Center
01:14PM 40.8886 -82.4014 103° East 397 457 23,000  Level Cleveland Center
01:15PM 40.8636 -82.2553 103° East 397 457 23,000  Level Cleveland Center
01:16PM 40.8386 -82.1117 103° East 397 457 23,000  Level Cleveland Center
01:17PM 40.8447 -81.9608 87° East 397 457 23,000  Level Cleveland Center
01:18PM 40.8486 -81.8128 88° East 402 463 23,000 -120 Level Cleveland Center
01:19PM 40.8519 -81.6839 88° East 376 433 22,800 -1,140 Descending Cleveland Center
01:20PM 40.8572 -81.5494 87° East 358 412 20,800 -2,040 Descending Cleveland Center
01:21PM 40.8606 -81.4039 88° East 380 437 18,800 -1,980 Descending Cleveland Center
01:22PM 40.8636 -81.2611 88° East 390 449 16,900 -1,980 Descending Cleveland Center
01:23PM 40.8664 -81.1211 88° East 384 442 14,900 -1,800 Descending Cleveland Center
01:24PM 40.8711 -80.9978 87° East 374 430 13,300 -1,860 Descending Cleveland Center
01:25PM 40.8736 -80.8658 89° East 369 425 11,200 -1,680 Descending Cleveland Center
01:26PM 40.8758 -80.7506 89° East 342 394 10,000 -600 Descending Cleveland Center
01:27PM 40.8761 -80.6381 90° East 318 366 10,000  Level Cleveland Center
01:28PM 40.8072 -80.5994 157° South 238 274 10,000  Level Cleveland Center
01:29PM 40.7342 -80.5775 167° South 255 293 10,000 -2,100 Level Cleveland Center
01:30PM 40.6656 -80.5558 167° South 267 307 5,900 -2,880 Descending Cleveland Center
01:31PM 40.6028 -80.5394 169° South 257 296 4,300 -1,020 Descending Cleveland Center
01:32PM 40.5383 -80.5122 162° South 246 283 3,900 -420 Descending Cleveland Center
01:34PM 40.4997 -80.2819 143° Southeast  Level Estimated
01:41PM 40.4915 -80.2329 143° Southeast  Level Estimated
01:42PM 40.4915 -80.2329 143° Southeast  Level Estimated
01:43PM 40.4915 -80.2329 143° Southeast  Level Estimated
01:44PM 40.4915 -80.2329 143° Southeast  Level Estimated